Time;durP1;ratioP1;P1;durP2;ratioP2;P2;SDS_P1;SDS_P2;PMS_P1;PMS_P2;Temp;Humidity;BMP_temperature;BMP_pressure;BME280_temperature;BME280_humidity;BME280_pressure;Samples;Min_cycle;Max_cycle;Signal;HPM_P1;HPM_P2
2024/01/30 00:00:06;;;;;;;;;234.00;232.50;;;;;19.01;47.21;102386.70;33896;1270;18072;-71
2024/01/30 00:00:54;;;;;;;;;9.00;9.00;;;;;19.00;47.26;102382.81;33876;1256;20020;-72
2024/01/30 00:02:01;;;;;;;;;237.00;236.50;;;;;19.00;47.09;102385.45;33862;1270;20494;-72
2024/01/30 00:02:49;;;;;;;;;10.00;10.00;;;;;19.00;47.22;102381.56;33876;1256;20349;-72
2024/01/30 00:03:36;;;;;;;;;15.00;13.00;;;;;19.00;47.18;102383.52;33871;1270;18382;-71
2024/01/30 00:04:24;;;;;;;;;9.00;8.50;;;;;18.99;47.30;102383.28;33874;1263;19539;-71
2024/01/30 00:05:11;;;;;;;;;10.00;9.00;;;;;19.00;47.30;102385.53;33884;1270;17939;-71
2024/01/30 00:05:58;;;;;;;;;9.00;9.00;;;;;18.98;47.20;102384.29;33878;1256;19912;-71
2024/01/30 00:06:46;;;;;;;;;8.00;8.00;;;;;18.99;47.09;102381.81;33882;1256;17992;-72
2024/01/30 00:07:33;;;;;;;;;678.00;678.00;;;;;18.99;47.27;102383.61;33871;1270;17918;-71
2024/01/30 00:08:21;;;;;;;;;1824.00;1824.00;;;;;18.99;47.20;102384.16;33869;1270;18625;-71
2024/01/30 00:09:08;;;;;;;;;908.00;908.00;;;;;18.99;47.18;102383.23;33867;1256;20525;-71
2024/01/30 00:09:56;;;;;;;;;455.00;455.00;;;;;18.98;47.25;102386.08;33866;1256;20038;-71
2024/01/30 00:10:43;;;;;;;;;232.00;232.00;;;;;18.99;47.05;102381.69;33871;1256;20101;-71
2024/01/30 00:11:31;;;;;;;;;10.00;8.00;;;;;18.99;47.20;102385.29;33869;1270;19981;-72
2024/01/30 00:12:18;;;;;;;;;13.00;10.00;;;;;18.99;47.06;102384.20;33860;1270;21419;-71
2024/01/30 00:13:06;;;;;;;;;234.50;233.00;;;;;18.98;47.07;102385.00;33872;1255;18117;-71
2024/01/30 00:13:54;;;;;;;;;12.50;9.50;;;;;18.98;47.13;102385.92;33867;1256;20050;-72
2024/01/30 00:14:42;;;;;;;;;459.00;458.67;;;;;18.99;47.14;102385.49;33873;1270;19461;-71
2024/01/30 00:15:29;;;;;;;;;455.00;455.00;;;;;18.98;47.16;102383.20;33877;1270;18631;-72
2024/01/30 00:16:16;;;;;;;;;234.50;233.00;;;;;18.98;46.92;102384.29;33880;1270;18656;-72
2024/01/30 00:17:04;;;;;;;;;1130.00;1129.00;;;;;18.99;47.03;102383.20;33890;1256;20002;-72
2024/01/30 00:17:52;;;;;;;;;16.00;13.00;;;;;18.97;47.34;102384.41;33862;1270;22829;-71
2024/01/30 00:18:39;;;;;;;;;458.50;457.00;;;;;18.98;47.42;102386.16;33863;1270;19500;-71
2024/01/30 00:19:27;;;;;;;;;459.00;459.00;;;;;18.98;47.74;102386.34;33849;1270;18630;-72
2024/01/30 00:20:14;;;;;;;;;684.50;684.00;;;;;18.98;47.66;102383.58;33859;1256;20122;-72
2024/01/30 00:21:02;;;;;;;;;762.33;761.00;;;;;18.98;47.05;102379.23;33871;1270;19941;-73
2024/01/30 00:21:49;;;;;;;;;238.50;235.50;;;;;18.98;46.72;102381.58;33877;1270;18649;-72
2024/01/30 00:22:36;;;;;;;;;1132.50;1131.50;;;;;18.99;46.55;102383.45;33871;1270;19989;-73
2024/01/30 00:23:24;;;;;;;;;17.00;14.00;;;;;19.00;46.34;102382.27;33866;1255;20559;-72
2024/01/30 00:24:11;;;;;;;;;13.00;12.00;;;;;19.00;46.30;102380.94;33853;1263;22717;-72
2024/01/30 00:24:59;;;;;;;;;16.50;13.50;;;;;19.01;46.40;102383.02;33865;1255;23459;-73
2024/01/30 00:25:46;;;;;;;;;1366.00;1365.00;;;;;19.02;45.93;102382.71;33857;1270;19511;-73
2024/01/30 00:26:33;;;;;;;;;234.00;234.00;;;;;19.03;46.01;102382.59;33859;1270;20495;-73
2024/01/30 00:27:21;;;;;;;;;458.50;458.50;;;;;19.02;46.03;102381.33;33861;1270;19962;-73
2024/01/30 00:28:08;;;;;;;;;12.00;12.00;;;;;19.02;46.03;102386.10;33863;1264;18663;-73
2024/01/30 00:28:56;;;;;;;;;14.00;13.00;;;;;19.02;45.99;102385.18;33850;1270;18180;-73
2024/01/30 00:29:43;;;;;;;;;237.00;235.50;;;;;19.02;46.00;102383.77;33895;1270;19760;-73
2024/01/30 00:30:30;;;;;;;;;12.00;10.00;;;;;19.00;46.33;102381.10;33900;1270;19038;-73
2024/01/30 00:31:18;;;;;;;;;1360.00;1360.00;;;;;18.99;46.31;102384.11;33889;1262;19758;-73
2024/01/30 00:32:05;;;;;;;;;13.00;9.00;;;;;18.99;46.32;102380.89;33858;1270;19129;-72
2024/01/30 00:32:53;;;;;;;;;13.00;12.00;;;;;18.99;46.44;102382.77;33881;1256;19483;-73
2024/01/30 00:33:40;;;;;;;;;453.00;453.00;;;;;18.99;46.79;102380.23;33879;1270;18181;-73
2024/01/30 00:34:28;;;;;;;;;10.00;10.00;;;;;18.99;46.97;102378.98;33862;1270;19984;-73
2024/01/30 00:35:15;;;;;;;;;13.00;12.00;;;;;18.98;47.19;102381.08;33863;1270;19746;-72
2024/01/30 00:36:02;;;;;;;;;452.00;450.00;;;;;18.98;46.96;102379.11;33894;1270;19481;-73
2024/01/30 00:36:50;;;;;;;;;13.00;12.00;;;;;18.98;47.26;102375.89;33873;1270;18605;-73
2024/01/30 00:37:37;;;;;;;;;10.00;10.00;;;;;18.97;47.32;102381.37;33872;1256;19661;-73
2024/01/30 00:38:25;;;;;;;;;12.00;12.00;;;;;18.98;47.47;102375.85;33874;1270;22000;-72
2024/01/30 00:39:12;;;;;;;;;11.50;10.00;;;;;18.98;47.57;102379.11;33882;1256;20023;-73
2024/01/30 00:39:59;;;;;;;;;10.00;10.00;;;;;18.98;47.45;102379.61;33876;1270;19642;-73
2024/01/30 00:40:47;;;;;;;;;9.00;9.00;;;;;18.98;47.50;102379.77;33872;1270;19418;-72
2024/01/30 00:41:34;;;;;;;;;11.67;10.67;;;;;18.99;47.55;102382.29;33889;1270;19309;-73
2024/01/30 00:42:23;;;;;;;;;907.00;907.00;;;;;18.98;47.57;102383.11;33860;1270;18321;-73
2024/01/30 00:43:11;;;;;;;;;9.00;9.00;;;;;18.97;47.75;102378.06;33868;1270;19977;-73
2024/01/30 00:43:58;;;;;;;;;12.00;10.00;;;;;18.98;47.47;102379.52;33886;1255;19350;-72
2024/01/30 00:44:45;;;;;;;;;13.00;11.00;;;;;18.98;47.54;102381.66;33859;1270;18154;-72
2024/01/30 00:45:33;;;;;;;;;12.67;10.33;;;;;18.98;47.46;102378.23;33867;1270;18115;-73
2024/01/30 00:46:20;;;;;;;;;9.00;8.00;;;;;18.98;47.17;102374.80;33904;1270;18141;-72
2024/01/30 00:47:08;;;;;;;;;452.00;452.00;;;;;18.98;47.26;102378.61;33874;1270;17939;-71
2024/01/30 00:47:55;;;;;;;;;8.00;8.00;;;;;18.98;47.26;102376.77;33888;1256;20658;-72
2024/01/30 00:48:43;;;;;;;;;454.00;452.00;;;;;18.98;47.04;102373.67;33886;1256;19513;-72
2024/01/30 00:49:30;;;;;;;;;234.00;233.00;;;;;18.98;47.04;102373.67;33909;1270;18687;-73
2024/01/30 00:50:17;;;;;;;;;8.00;8.00;;;;;18.98;47.01;102374.23;33867;1270;19084;-72
2024/01/30 00:51:05;;;;;;;;;10.00;10.00;;;;;18.98;46.79;102376.23;33896;1256;21447;-73
2024/01/30 00:51:52;;;;;;;;;12.00;9.00;;;;;18.98;47.07;102376.61;33899;1270;18167;-73
2024/01/30 00:52:41;;;;;;;;;10.00;9.00;;;;;18.98;46.97;102371.17;33895;1270;18142;-72
2024/01/30 00:53:28;;;;;;;;;12.50;9.50;;;;;18.98;46.58;102373.84;33904;1270;18126;-72
2024/01/30 00:54:16;;;;;;;;;234.50;232.50;;;;;18.98;46.55;102372.05;33881;1270;18124;-73
2024/01/30 00:55:03;;;;;;;;;10.00;10.00;;;;;18.98;46.74;102371.73;33892;1256;20041;-73
2024/01/30 00:55:51;;;;;;;;;232.00;231.00;;;;;18.97;46.68;102370.67;33876;1270;19539;-73
2024/01/30 00:56:38;;;;;;;;;10.67;9.00;;;;;18.97;46.64;102367.46;33866;1270;21058;-73
2024/01/30 00:57:26;;;;;;;;;230.50;229.50;;;;;18.97;46.54;102372.72;33888;1270;19557;-73
2024/01/30 00:58:14;;;;;;;;;9.00;9.00;;;;;18.97;46.68;102372.55;33901;1255;20122;-73
2024/01/30 00:59:01;;;;;;;;;9.00;9.00;;;;;18.97;46.70;102373.60;33877;1270;19281;-71
2024/01/30 00:59:49;;;;;;;;;236.00;233.50;;;;;18.97;46.67;102370.17;33872;1270;18168;-72
2024/01/30 01:00:37;;;;;;;;;451.00;450.00;;;;;18.97;46.71;102372.89;33875;1270;18669;-70
2024/01/30 01:01:24;;;;;;;;;9.50;9.00;;;;;18.96;46.56;102370.05;33860;1255;21902;-71
2024/01/30 01:02:11;;;;;;;;;454.00;454.00;;;;;18.96;46.64;102366.08;33885;1270;21380;-70
2024/01/30 01:02:59;;;;;;;;;12.00;10.00;;;;;18.96;46.57;102363.03;33892;1270;19836;-70
2024/01/30 01:03:47;;;;;;;;;9.00;9.00;;;;;18.97;46.34;102363.70;33870;1255;21637;-71
2024/01/30 01:04:35;;;;;;;;;455.00;455.00;;;;;18.96;46.35;102367.38;33900;1256;19357;-72
2024/01/30 01:05:22;;;;;;;;;;;;;;;18.97;46.39;102363.52;33886;1270;19989;-70
2024/01/30 01:06:09;;;;;;;;;10.00;9.00;;;;;18.97;46.52;102365.55;33881;1270;17532;-70
2024/01/30 01:06:57;;;;;;;;;456.00;456.00;;;;;18.96;46.38;102363.25;33878;1270;18157;-70
2024/01/30 01:07:45;;;;;;;;;12.00;10.00;;;;;18.96;46.39;102362.95;33890;1270;18681;-71
2024/01/30 01:08:32;;;;;;;;;12.00;9.00;;;;;18.97;46.53;102359.02;33877;1263;22683;-70
2024/01/30 01:09:20;;;;;;;;;157.67;157.67;;;;;18.96;46.47;102359.95;33884;1270;22641;-70
2024/01/30 01:10:08;;;;;;;;;10.00;9.00;;;;;18.96;46.47;102359.45;33885;1270;19984;-71
2024/01/30 01:10:55;;;;;;;;;9.00;9.00;;;;;18.96;46.47;102361.61;33868;1255;21138;-70
2024/01/30 01:11:43;;;;;;;;;232.50;232.00;;;;;18.96;46.43;102363.41;33862;1256;21460;-70
2024/01/30 01:12:30;;;;;;;;;232.00;229.50;;;;;18.97;46.36;102361.15;33857;1256;21330;-71
2024/01/30 01:13:18;;;;;;;;;9.00;9.00;;;;;18.96;46.28;102360.52;33848;1262;22633;-70
2024/01/30 01:14:05;;;;;;;;;455.00;455.00;;;;;18.96;46.27;102361.70;33875;1270;19526;-70
2024/01/30 01:14:53;;;;;;;;;463.00;461.00;;;;;18.95;46.28;102361.70;33854;1270;18694;-71
2024/01/30 01:15:40;;;;;;;;;233.50;232.50;;;;;18.96;46.40;102364.05;33863;1270;18861;-71
2024/01/30 01:16:27;;;;;;;;;677.00;675.50;;;;;18.95;46.42;102360.66;33851;1270;18642;-71
2024/01/30 01:17:15;;;;;;;;;232.50;232.50;;;;;18.95;46.17;102359.12;33866;1256;18700;-71
2024/01/30 01:18:02;;;;;;;;;457.00;456.00;;;;;18.95;46.39;102359.02;33857;1270;19977;-71
2024/01/30 01:18:50;;;;;;;;;10.00;9.00;;;;;18.96;46.22;102362.20;33875;1256;20510;-71
2024/01/30 01:19:37;;;;;;;;;9.00;9.00;;;;;18.95;46.32;102363.05;33866;1270;18103;-71
2024/01/30 01:20:24;;;;;;;;;906.50;905.50;;;;;18.95;46.31;102361.08;33840;1256;21382;-71
2024/01/30 01:21:12;;;;;;;;;904.00;904.00;;;;;18.95;46.13;102354.52;33875;1255;18630;-72
2024/01/30 01:21:59;;;;;;;;;1134.50;1134.50;;;;;18.95;46.29;102353.69;33845;1255;20043;-73
2024/01/30 01:22:47;;;;;;;;;689.50;688.00;;;;;18.94;46.20;102349.55;33857;1270;19518;-73
2024/01/30 01:23:34;;;;;;;;;12.50;10.00;;;;;18.94;46.26;102353.94;33857;1270;22509;-73
2024/01/30 01:24:21;;;;;;;;;687.50;687.50;;;;;18.94;46.39;102351.39;33875;1270;19507;-72
2024/01/30 01:25:10;;;;;;;;;684.00;683.00;;;;;18.94;46.42;102355.08;33855;1264;20116;-71
2024/01/30 01:25:59;;;;;;;;;233.50;232.00;;;;;18.94;46.64;102353.77;33877;1262;23516;-73
2024/01/30 01:26:47;;;;;;;;;1806.00;1805.00;;;;;18.94;46.76;102356.28;33869;1256;20032;-72
2024/01/30 01:27:38;;;;;;;;;909.00;907.00;;;;;18.94;46.52;102354.32;33855;1270;19087;-71
2024/01/30 01:28:25;;;;;;;;;1589.50;1589.50;;;;;18.94;46.51;102352.69;33838;1270;22406;-73
2024/01/30 01:29:13;;;;;;;;;459.00;457.00;;;;;18.94;46.17;102354.23;33856;1270;20450;-73
2024/01/30 01:30:00;;;;;;;;;611.67;610.67;;;;;18.95;46.04;102353.48;33850;1256;21450;-72
2024/01/30 01:30:48;;;;;;;;;1359.33;1358.33;;;;;18.95;45.77;102354.23;33857;1270;21531;-72
2024/01/30 01:31:35;;;;;;;;;909.00;909.00;;;;;18.95;45.88;102352.81;33844;1256;21985;-72
2024/01/30 01:32:22;;;;;;;;;1356.00;1356.00;;;;;18.95;45.85;102354.77;33886;1270;18626;-74
2024/01/30 01:33:10;;;;;;;;;1814.00;1811.00;;;;;18.95;46.28;102355.45;33883;1256;19100;-72
2024/01/30 01:33:57;;;;;;;;;454.00;454.00;;;;;18.94;46.27;102353.95;33884;1263;20324;-71
2024/01/30 01:34:45;;;;;;;;;456.00;455.00;;;;;18.95;46.02;102351.30;33886;1270;20982;-71
2024/01/30 01:35:32;;;;;;;;;458.00;456.00;;;;;18.94;46.52;102350.02;33896;1270;20021;-73
2024/01/30 01:36:20;;;;;;;;;458.00;456.00;;;;;18.93;46.79;102348.64;33891;1256;20052;-73
2024/01/30 01:37:07;;;;;;;;;1121.50;1121.50;;;;;18.94;46.71;102349.10;34144;1264;19969;-72
2024/01/30 01:37:55;;;;;;;;;232.00;231.50;;;;;18.94;46.88;102347.26;34136;1249;20860;-71
2024/01/30 01:38:43;;;;;;;;;794.75;793.00;;;;;18.94;46.88;102344.21;34136;1264;22956;-71
2024/01/30 01:39:30;;;;;;;;;1579.00;1579.00;;;;;18.94;46.85;102345.04;34138;1264;19912;-70
2024/01/30 01:40:17;;;;;;;;;452.50;451.00;;;;;18.94;46.68;102344.00;34133;1264;20396;-71
2024/01/30 01:41:05;;;;;;;;;2247.00;2247.00;;;;;18.94;47.07;102345.30;34143;1250;20094;-70
2024/01/30 01:41:52;;;;;;;;;678.00;678.00;;;;;18.94;46.94;102347.14;34139;1249;20637;-71
2024/01/30 01:42:40;;;;;;;;;1354.33;1354.33;;;;;18.94;46.98;102344.21;34141;1264;19089;-70
2024/01/30 01:43:27;;;;;;;;;451.00;451.00;;;;;18.94;46.86;102344.71;34141;1264;19110;-70
2024/01/30 01:44:15;;;;;;;;;1351.00;1351.00;;;;;18.94;46.84;102345.84;34133;1249;20172;-71
2024/01/30 01:45:02;;;;;;;;;1124.50;1124.50;;;;;18.94;46.86;102342.74;34139;1264;22350;-71
2024/01/30 01:45:49;;;;;;;;;1575.50;1575.50;;;;;18.94;46.72;102347.60;34137;1264;20448;-71
2024/01/30 01:46:37;;;;;;;;;2019.00;2019.00;;;;;18.95;46.50;102344.13;34137;1250;20565;-70
2024/01/30 01:47:24;;;;;;;;;1800.00;1799.00;;;;;18.94;46.38;102342.41;34138;1249;20589;-70
2024/01/30 01:48:12;;;;;;;;;1811.00;1810.00;;;;;18.94;46.47;102342.04;34120;1264;20477;-71
2024/01/30 01:48:59;;;;;;;;;455.00;452.00;;;;;18.94;46.32;102344.08;34116;1249;20521;-70
2024/01/30 01:49:47;;;;;;;;;2241.00;2241.00;;;;;18.94;45.98;102340.91;34106;1264;18613;-70
2024/01/30 01:50:34;;;;;;;;;1803.67;1803.67;;;;;18.94;46.18;102342.41;34110;1249;20614;-71
2024/01/30 01:51:21;;;;;;;;;2712.00;2711.00;;;;;18.94;46.18;102340.58;34123;1249;20558;-71
2024/01/30 01:52:09;;;;;;;;;2704.50;2704.50;;;;;18.94;46.08;102338.62;34116;1257;20523;-71
2024/01/30 01:52:56;;;;;;;;;1356.00;1355.00;;;;;18.94;45.97;102340.95;34109;1249;20587;-70
2024/01/30 01:53:44;;;;;;;;;1814.00;1814.00;;;;;18.94;46.11;102342.41;34119;1264;19138;-71
2024/01/30 01:54:31;;;;;;;;;1809.50;1809.50;;;;;18.93;46.14;102343.93;34122;1264;19111;-71
2024/01/30 01:55:21;;;;;;;;;1795.50;1795.50;;;;;18.93;45.91;102343.55;34132;1264;19109;-71
2024/01/30 01:56:08;;;;;;;;;905.00;904.00;;;;;18.93;46.01;102342.17;34124;1264;20591;-71
2024/01/30 01:56:56;;;;;;;;;1130.50;1129.50;;;;;18.93;45.90;102342.30;34112;1264;18664;-72
2024/01/30 01:57:43;;;;;;;;;1799.00;1799.00;;;;;18.93;45.98;102340.88;34112;1264;20432;-72
2024/01/30 01:58:31;;;;;;;;;1806.00;1806.00;;;;;18.93;45.82;102341.80;34114;1264;20449;-71
2024/01/30 01:59:18;;;;;;;;;2488.00;2488.00;;;;;18.93;45.76;102340.00;34108;1248;20459;-70
2024/01/30 02:00:05;;;;;;;;;2033.50;2033.50;;;;;18.93;45.94;102343.09;34129;1249;20651;-71
2024/01/30 02:00:53;;;;;;;;;1803.00;1803.00;;;;;18.93;45.71;102340.95;34136;1264;20774;-70
2024/01/30 02:01:40;;;;;;;;;904.50;904.00;;;;;18.93;45.70;102344.01;34133;1264;20482;-71
2024/01/30 02:02:28;;;;;;;;;1585.50;1584.00;;;;;18.93;45.92;102342.88;34086;1264;18671;-71
2024/01/30 02:03:15;;;;;;;;;1584.00;1583.00;;;;;18.93;45.81;102343.84;34080;1264;20643;-72
2024/01/30 02:04:03;;;;;;;;;1507.67;1507.67;;;;;18.92;45.75;102342.27;34102;1248;20465;-70
2024/01/30 02:04:50;;;;;;;;;1355.50;1355.00;;;;;18.93;45.70;102340.38;34149;1264;19055;-71
2024/01/30 02:05:38;;;;;;;;;1358.00;1358.00;;;;;18.92;45.83;102339.55;34120;1264;20440;-70
2024/01/30 02:06:25;;;;;;;;;1579.50;1579.50;;;;;18.92;45.78;102341.39;34143;1264;19093;-71
2024/01/30 02:07:13;;;;;;;;;1808.00;1808.00;;;;;18.92;45.73;102341.71;34124;1249;20480;-71
2024/01/30 02:08:00;;;;;;;;;1806.00;1805.00;;;;;18.92;45.68;102340.09;34139;1249;20489;-71
2024/01/30 02:08:47;;;;;;;;;1794.00;1794.00;;;;;18.92;45.86;102339.04;34144;1264;19119;-70
2024/01/30 02:09:35;;;;;;;;;1572.50;1571.50;;;;;18.92;45.54;102337.29;34134;1257;20593;-70
2024/01/30 02:10:22;;;;;;;;;1810.00;1810.00;;;;;18.91;45.75;102334.08;34133;1264;20423;-70
2024/01/30 02:11:11;;;;;;;;;1814.00;1814.00;;;;;18.92;45.68;102337.79;34126;1249;20503;-71
2024/01/30 02:11:58;;;;;;;;;2938.50;2938.00;;;;;18.91;45.58;102341.34;34110;1264;22320;-70
2024/01/30 02:12:45;;;;;;;;;2269.50;2268.50;;;;;18.92;45.75;102340.34;34127;1264;19473;-72
2024/01/30 02:13:33;;;;;;;;;1813.00;1813.00;;;;;18.91;45.73;102337.50;34118;1249;20459;-72
2024/01/30 02:14:20;;;;;;;;;1808.00;1808.00;;;;;18.92;45.58;102341.64;34109;1264;19432;-72
2024/01/30 02:15:09;;;;;;;;;1808.00;1808.00;;;;;18.92;45.66;102339.30;34121;1249;20534;-73
2024/01/30 02:15:56;;;;;;;;;2277.00;2276.50;;;;;18.92;45.78;102341.30;34118;1249;22162;-71
2024/01/30 02:16:44;;;;;;;;;1596.00;1596.00;;;;;18.91;45.68;102339.73;34125;1264;20447;-72
2024/01/30 02:17:31;;;;;;;;;1610.50;1608.50;;;;;18.91;45.67;102340.42;34115;1264;20694;-71
2024/01/30 02:18:18;;;;;;;;;2717.00;2717.00;;;;;18.90;45.54;102336.76;34119;1264;19066;-70
2024/01/30 02:19:07;;;;;;;;;1360.00;1359.00;;;;;18.91;45.65;102339.34;34127;1250;20494;-72
2024/01/30 02:19:54;;;;;;;;;1810.00;1810.00;;;;;18.91;45.50;102335.84;34133;1264;20494;-72
2024/01/30 02:20:42;;;;;;;;;1811.00;1811.00;;;;;18.91;45.55;102337.25;34143;1250;20432;-71
2024/01/30 02:21:29;;;;;;;;;3613.00;3613.00;;;;;18.91;45.48;102335.96;34139;1264;20413;-71
2024/01/30 02:22:18;;;;;;;;;2703.00;2703.00;;;;;18.91;45.63;102335.37;34128;1249;20512;-72
2024/01/30 02:23:05;;;;;;;;;1781.00;1780.00;;;;;18.91;45.43;102335.80;34146;1264;22467;-72
2024/01/30 02:23:53;;;;;;;;;2937.50;2937.50;;;;;18.89;45.34;102330.74;34152;1264;19081;-71
2024/01/30 02:24:40;;;;;;;;;3163.00;3163.00;;;;;18.90;45.61;102330.29;34152;1264;19095;-72
2024/01/30 02:25:27;;;;;;;;;2696.00;2696.00;;;;;18.90;45.44;102333.70;34160;1264;19092;-73
2024/01/30 02:26:15;;;;;;;;;2703.00;2703.00;;;;;18.91;45.47;102333.67;34159;1256;20504;-72
2024/01/30 02:27:02;;;;;;;;;2703.00;2703.00;;;;;18.90;45.64;102333.92;34150;1264;22010;-73
2024/01/30 02:27:50;;;;;;;;;3594.00;3594.00;;;;;18.90;45.70;102333.59;34127;1264;19114;-73
2024/01/30 02:28:37;;;;;;;;;2686.00;2686.00;;;;;18.89;45.84;102331.45;34137;1249;21049;-73
2024/01/30 02:29:25;;;;;;;;;4063.00;4063.00;;;;;18.89;46.12;102333.09;34128;1250;19116;-72
2024/01/30 02:30:12;;;;;;;;;3387.50;3387.50;;;;;18.89;46.19;102333.63;34129;1264;19271;-72
2024/01/30 02:31:00;;;;;;;;;3594.00;3594.00;;;;;18.90;45.87;102333.80;34145;1249;20892;-71
2024/01/30 02:31:47;;;;;;;;;3603.00;3603.00;;;;;18.90;45.66;102332.71;34138;1250;20722;-72
2024/01/30 02:32:34;;;;;;;;;3603.00;3603.00;;;;;18.90;45.44;102336.84;34131;1264;20456;-72
2024/01/30 02:33:22;;;;;;;;;3163.00;3162.00;;;;;18.90;45.14;102337.17;34121;1249;20683;-71
2024/01/30 02:34:10;;;;;;;;;3145.00;3145.00;;;;;18.90;45.19;102337.67;34159;1264;20531;-72
2024/01/30 02:34:57;;;;;;;;;3613.00;3613.00;;;;;18.90;44.82;102337.09;34134;1264;22064;-72
2024/01/30 02:35:45;;;;;;;;;3613.00;3613.00;;;;;18.91;44.80;102335.00;34132;1264;19418;-71
2024/01/30 02:36:32;;;;;;;;;3589.00;3589.00;;;;;18.91;44.70;102337.55;34142;1256;19150;-71
2024/01/30 02:37:20;;;;;;;;;3603.00;3603.00;;;;;18.91;44.70;102340.52;34150;1264;19164;-73
2024/01/30 02:38:07;;;;;;;;;3594.00;3594.00;;;;;18.91;44.76;102335.33;34133;1249;20570;-72
2024/01/30 02:38:54;;;;;;;;;3613.00;3613.00;;;;;18.91;44.62;102339.02;34139;1249;23319;-72
2024/01/30 02:39:42;;;;;;;;;3593.50;3593.50;;;;;18.92;44.70;102341.09;34132;1249;22296;-71
2024/01/30 02:40:29;;;;;;;;;3594.00;3593.50;;;;;18.91;44.41;102337.17;34129;1264;19111;-71
2024/01/30 02:41:17;;;;;;;;;3603.00;3603.00;;;;;18.91;44.72;102336.55;34148;1248;20563;-71
2024/01/30 02:42:04;;;;;;;;;4064.00;4063.00;;;;;18.90;44.76;102342.19;34138;1264;20420;-73
2024/01/30 02:42:51;;;;;;;;;3613.00;3613.00;;;;;18.90;45.05;102338.69;34129;1249;20879;-71
2024/01/30 02:43:39;;;;;;;;;3361.00;3361.00;;;;;18.89;45.46;102339.31;34129;1264;19065;-71
2024/01/30 02:44:26;;;;;;;;;3613.00;3613.00;;;;;18.89;45.71;102344.42;34126;1264;20419;-71
2024/01/30 02:45:14;;;;;;;;;3613.00;3613.00;;;;;18.89;45.83;102344.04;34138;1264;19109;-72
2024/01/30 02:46:01;;;;;;;;;4063.00;4063.00;;;;;18.89;45.94;102345.33;34132;1264;20730;-71
2024/01/30 02:46:48;;;;;;;;;4076.00;4075.00;;;;;18.89;46.07;102344.15;34125;1264;20493;-72
2024/01/30 02:47:36;;;;;;;;;3817.50;3817.50;;;;;18.89;46.02;102344.37;34147;1257;20494;-72
2024/01/30 02:48:23;;;;;;;;;4053.00;4053.00;;;;;18.89;45.86;102344.33;34146;1264;20451;-71
2024/01/30 02:49:11;;;;;;;;;4042.00;4042.00;;;;;18.89;46.23;102341.98;34149;1249;22931;-72
2024/01/30 02:49:58;;;;;;;;;3807.00;3807.00;;;;;18.89;45.98;102342.58;34127;1264;22259;-72
2024/01/30 02:50:46;;;;;;;;;3838.50;3838.50;;;;;18.89;46.16;102343.44;34124;1264;21716;-72
2024/01/30 02:51:34;;;;;;;;;3374.50;3374.50;;;;;18.89;46.17;102341.64;34135;1264;20487;-72
2024/01/30 02:52:21;;;;;;;;;4085.00;4085.00;;;;;18.89;46.18;102342.95;34142;1264;20430;-72
2024/01/30 02:53:09;;;;;;;;;3133.50;3133.00;;;;;18.88;46.19;102342.98;34145;1249;20453;-72
2024/01/30 02:53:56;;;;;;;;;3817.50;3817.50;;;;;18.89;46.13;102342.24;34122;1249;20968;-72
2024/01/30 02:54:44;;;;;;;;;3827.50;3827.50;;;;;18.89;46.24;102345.45;34116;1264;19059;-72
2024/01/30 02:55:31;;;;;;;;;3139.00;3139.00;;;;;18.89;45.98;102344.73;34113;1249;20618;-72
2024/01/30 02:56:19;;;;;;;;;2909.50;2909.50;;;;;18.89;45.75;102343.86;34123;1264;20383;-72
2024/01/30 02:57:06;;;;;;;;;4503.00;4503.00;;;;;18.89;45.63;102341.91;34122;1249;20525;-73
2024/01/30 02:57:53;;;;;;;;;3623.00;3623.00;;;;;18.88;45.65;102342.29;34100;1249;20475;-71
2024/01/30 02:58:41;;;;;;;;;3593.33;3593.33;;;;;18.89;45.77;102344.95;34112;1264;20506;-73
2024/01/30 02:59:28;;;;;;;;;4491.00;4491.00;;;;;18.89;45.75;102344.24;34112;1248;20786;-71
2024/01/30 03:00:16;;;;;;;;;3603.00;3603.00;;;;;18.88;45.80;102343.41;34108;1264;19451;-72
2024/01/30 03:01:03;;;;;;;;;3613.00;3613.00;;;;;18.88;45.75;102341.98;34115;1264;20462;-72
2024/01/30 03:01:50;;;;;;;;;4277.50;4277.50;;;;;18.88;45.68;102343.50;34103;1250;20807;-72
2024/01/30 03:02:38;;;;;;;;;4297.00;4297.00;;;;;18.88;45.55;102347.05;34112;1264;19129;-71
2024/01/30 03:03:25;;;;;;;;;4085.00;4085.00;;;;;18.88;45.65;102345.42;34107;1264;19092;-72
2024/01/30 03:04:13;;;;;;;;;3145.00;3145.00;;;;;18.89;45.61;102347.71;34125;1248;20475;-71
2024/01/30 03:05:00;;;;;;;;;3612.50;3612.50;;;;;18.88;45.60;102348.51;34115;1249;20603;-72
2024/01/30 03:05:48;;;;;;;;;3361.00;3360.00;;;;;18.88;45.49;102347.64;34100;1264;21061;-71
2024/01/30 03:06:35;;;;;;;;;3144.50;3144.50;;;;;18.88;45.58;102345.04;34115;1250;20532;-71
2024/01/30 03:07:22;;;;;;;;;3837.75;3837.75;;;;;18.88;45.67;102344.96;34123;1264;19100;-71
2024/01/30 03:08:10;;;;;;;;;4052.00;4052.00;;;;;18.87;45.52;102343.16;34104;1261;20522;-72
2024/01/30 03:08:57;;;;;;;;;3817.50;3817.50;;;;;18.87;45.44;102344.25;34118;1264;20507;-72
2024/01/30 03:09:45;;;;;;;;;4300.50;4300.50;;;;;18.88;45.53;102346.89;34112;1249;19999;-72
2024/01/30 03:10:32;;;;;;;;;3613.00;3613.00;;;;;18.88;45.51;102342.58;34118;1264;20499;-72
2024/01/30 03:11:20;;;;;;;;;3145.00;3145.00;;;;;18.88;45.30;102344.00;34112;1264;19123;-71
2024/01/30 03:12:07;;;;;;;;;3585.00;3584.00;;;;;18.88;45.37;102344.91;34117;1264;20447;-72
2024/01/30 03:12:55;;;;;;;;;4503.00;4503.00;;;;;18.87;45.56;102343.21;34123;1249;20644;-71
2024/01/30 03:13:42;;;;;;;;;4063.00;4063.00;;;;;18.87;45.46;102342.71;34118;1264;19112;-72
2024/01/30 03:14:29;;;;;;;;;3369.50;3369.50;;;;;18.87;45.52;102345.71;34108;1264;19107;-72
2024/01/30 03:15:17;;;;;;;;;3632.00;3632.00;;;;;18.87;45.41;102340.70;34124;1249;20587;-72
2024/01/30 03:16:04;;;;;;;;;3603.00;3603.00;;;;;18.87;45.24;102339.95;34142;1264;19166;-73
2024/01/30 03:16:52;;;;;;;;;4515.00;4515.00;;;;;18.87;45.29;102343.63;34123;1264;19095;-72
2024/01/30 03:17:39;;;;;;;;;3145.00;3145.00;;;;;18.87;45.05;102336.58;34109;1264;19243;-73
2024/01/30 03:18:27;;;;;;;;;3387.50;3387.50;;;;;18.87;45.24;102338.75;34120;1264;20494;-72
2024/01/30 03:19:14;;;;;;;;;4064.00;4064.00;;;;;18.87;45.25;102341.84;34146;1264;20462;-72
2024/01/30 03:20:03;;;;;;;;;4515.00;4515.00;;;;;18.86;45.34;102339.83;34105;1264;20432;-73
2024/01/30 03:20:51;;;;;;;;;4064.00;4064.00;;;;;18.87;45.24;102336.91;34084;1249;23243;-73
2024/01/30 03:21:38;;;;;;;;;4053.00;4053.00;;;;;18.86;45.28;102338.79;34115;1264;20493;-73
2024/01/30 03:22:25;;;;;;;;;3613.00;3613.00;;;;;18.86;45.20;102338.08;34115;1249;20553;-73
2024/01/30 03:23:13;;;;;;;;;3613.00;3613.00;;;;;18.86;45.30;102336.61;34104;1264;20418;-72
2024/01/30 03:24:00;;;;;;;;;3613.00;3613.00;;;;;18.86;45.23;102336.07;34094;1264;22600;-73
2024/01/30 03:24:48;;;;;;;;;3603.00;3603.00;;;;;18.86;45.26;102337.79;34124;1256;20934;-72
2024/01/30 03:25:35;;;;;;;;;3623.00;3623.00;;;;;18.86;45.01;102337.95;34100;1264;19121;-73
2024/01/30 03:26:23;;;;;;;;;4063.00;4063.00;;;;;18.86;45.18;102339.92;34080;1248;20605;-73
2024/01/30 03:27:11;;;;;;;;;3632.00;3632.00;;;;;18.86;45.12;102340.95;34091;1250;20694;-72
2024/01/30 03:27:58;;;;;;;;;4491.00;4491.00;;;;;18.86;45.26;102339.25;34148;1264;19095;-73
2024/01/30 03:28:46;;;;;;;;;3613.00;3613.00;;;;;18.86;45.09;102337.79;34127;1250;20605;-72
2024/01/30 03:29:33;;;;;;;;;3614.00;3613.00;;;;;18.86;44.98;102338.55;34156;1264;19086;-71